logo dgac
Lunes 20 de Mayo del 2019
Buscar por aerodromo o helipuerto
Ingrese nombre de aeródromo, localidad o designador OACI:
TAF: TAF SCBA 201056Z 2012/2112 25006KT CAVOK TNM05/2012Z TX06/2018Z BECMG 2014/2016 30008KT BECMG 2004/2006 BKN010
TAF del 20/05/2019 a las 10:56 UTC
Período de validez: desde el 20 a las 12:00 UTC hasta el 21 a las 12:00 UTC
Viento: dirección 250 grados, velocidad 6 nudos
Visibilidad: 10 km o más,
    sin nubes bajo los 5.000 pies o bajo del MSA (Mínimo de Seguridad del Aeródromo),
    sin cumulonimbus, y sin fenómenos de tiempo significativo en el aeródromo o alrededores
Nan: TNM05/2012Z
Temperatura máxima: 6ºC el 20 a las 18:00 UTC
Se espera un cambio entre las 14:00 UTC del 20 y las 16:00 UTC del 20, :
Viento: dirección 300 grados, velocidad 8 nudos
Se espera un cambio entre las 04:00 UTC del 20 y las 06:00 UTC del 20, :
Nubes: Nublado a 1000 pies sobre el nivel del aeródromo